»·PEaware :: DAL213 CYVR-KSEA

DAL213 :: CYVR-KSEA

FLIGHT INFORMATION

Flight Status: Arrived
Operator:
Delta Air Lines
More flights by this operator :: More flights under this callsign
Pilot: Nicolas L. (9332)
Aircraft: BOEING 737-800
(B738)
More flights by this aircraft type
Origin: CYVR Vancouver Intl
Canada
Destination: KSEA Seattle-Tacoma Intl
United States
More flights between these airports :: More routes between these airports
Route: YVR MARNR7
File this flight plan on PilotEdge
Remarks: Live Streaming on Twith "DAL213" and YT
Altitude:
(Current/Filed)
19,000ft
Speed:
(Current/Filed)
400kts
Departed: 05-Aug-18 08:02 PM
Arrived: 05-Aug-18 08:30 PM
Distance/Time
Traveled:
111nm/0:28
Distance/Time
To Go:
Arrived

Flight Plot

Page will automatically refresh every two minutes.

Flight plan parsing failed; only flown route is shown


Map Options




Map Legend


Flown Route
Filed Route
Departure Airport
Arrival Airport
Navaid (VOR, NDB)
Fix

Horizontal Profiles

Position Reports

Time Latitude Longitude Heading Altitude Ground
Speed
05-Aug-18 19:30 49.192114 -123.182678 7 23ft 0kts
05-Aug-18 19:31 49.192114 -123.182678 7 23ft 0kts
05-Aug-18 19:32 49.192114 -123.182678 7 23ft 0kts
05-Aug-18 19:33 49.192114 -123.182678 7 23ft 0kts
05-Aug-18 19:34 49.192114 -123.182678 7 23ft 0kts
05-Aug-18 19:35 49.192114 -123.182678 7 23ft 0kts
05-Aug-18 19:36 49.192114 -123.182678 7 23ft 0kts
05-Aug-18 19:37 49.192114 -123.182678 7 23ft 0kts
05-Aug-18 19:38 49.192114 -123.182678 7 23ft 0kts
05-Aug-18 19:39 49.192114 -123.182678 7 23ft 0kts
05-Aug-18 19:40 49.192114 -123.182678 7 23ft 0kts
05-Aug-18 19:41 49.192114 -123.182678 7 23ft 0kts
05-Aug-18 19:42 49.192114 -123.182678 7 23ft 0kts
05-Aug-18 19:43 49.192114 -123.182678 7 23ft 0kts
05-Aug-18 19:44 49.192114 -123.182678 7 23ft 0kts
05-Aug-18 19:45 49.192114 -123.182678 7 23ft 0kts
05-Aug-18 19:46 49.192114 -123.182678 7 23ft 0kts
05-Aug-18 19:47 49.192114 -123.182678 7 23ft 0kts
05-Aug-18 19:48 49.192114 -123.182678 7 23ft 0kts
05-Aug-18 19:49 49.192114 -123.182678 7 23ft 0kts
05-Aug-18 19:50 49.192114 -123.182678 7 23ft 0kts
05-Aug-18 19:51 49.192114 -123.182678 7 23ft 0kts
05-Aug-18 19:52 49.192114 -123.182678 7 23ft 0kts
05-Aug-18 19:53 49.191953 -123.182723 16 23ft 2kts
05-Aug-18 19:54 49.191539 -123.183207 56 23ft 0kts
05-Aug-18 19:55 49.191539 -123.183207 56 23ft 0kts
05-Aug-18 19:56 49.191539 -123.183207 56 23ft 0kts
05-Aug-18 19:57 49.191540 -123.183206 56 23ft 0kts
05-Aug-18 19:58 49.189110 -123.180417 113 23ft 14kts
05-Aug-18 19:59 49.188075 -123.171410 100 23ft 19kts
05-Aug-18 20:00 49.186735 -123.163492 137 23ft 19kts
05-Aug-18 20:01 49.184978 -123.162969 279 23ft 0kts
05-Aug-18 20:02 49.184978 -123.162972 279 23ft 0kts
05-Aug-18 20:03 49.187407 -123.183867 279 131ft 156kts
05-Aug-18 20:04 49.192033 -123.257873 241 2811ft 221kts
05-Aug-18 20:05 49.128055 -123.261043 163 5996ft 270kts
05-Aug-18 20:06 49.053473 -123.230300 165 9681ft 285kts
05-Aug-18 20:07 48.970396 -123.198037 165 12253ft 328kts
05-Aug-18 20:08 48.879084 -123.163276 166 15453ft 345kts
05-Aug-18 20:09 48.788374 -123.128914 166 18321ft 361kts
05-Aug-18 20:10 48.761772 -123.118877 166 18913ft 371kts
05-Aug-18 20:11 48.658488 -123.079955 166 19040ft 385kts
05-Aug-18 20:12 48.554415 -123.040910 166 19066ft 386kts
05-Aug-18 20:13 48.449890 -123.001864 166 19075ft 386kts
05-Aug-18 20:14 48.345745 -122.963123 166 19080ft 386kts
05-Aug-18 20:15 48.241446 -122.924488 166 19086ft 386kts
05-Aug-18 20:16 48.136725 -122.885873 166 19087ft 388kts
05-Aug-18 20:17 48.033331 -122.841760 153 18867ft 386kts
05-Aug-18 20:18 47.946063 -122.765350 150 16947ft 337kts
05-Aug-18 20:19 47.865471 -122.693241 149 15253ft 332kts
05-Aug-18 20:20 47.823085 -122.655136 149 14378ft 322kts
05-Aug-18 20:21 47.748590 -122.588404 149 12829ft 303kts
05-Aug-18 20:22 47.676444 -122.532939 156 11377ft 281kts
05-Aug-18 20:23 47.608102 -122.486330 155 10520ft 261kts
05-Aug-18 20:24 47.537485 -122.464559 178 10047ft 259kts
05-Aug-18 20:25 47.463193 -122.465172 182 7883ft 272kts
05-Aug-18 20:26 47.389659 -122.472400 185 5339ft 261kts
05-Aug-18 20:27 47.342818 -122.418389 90 3488ft 233kts
05-Aug-18 20:28 47.368445 -122.339377 50 1784ft 183kts
05-Aug-18 20:29 47.402322 -122.308092 3 933ft 139kts
05-Aug-18 20:30 47.440027 -122.307897 3 442ft 95kts
05-Aug-18 20:31 47.444582 -122.306348 178 442ft 10kts
05-Aug-18 20:32 47.442877 -122.304406 146 442ft 10kts
05-Aug-18 20:33 47.442610 -122.304059 134 442ft 0kts
05-Aug-18 20:34 47.442610 -122.304059 134 442ft 0kts
05-Aug-18 20:35 47.442610 -122.304059 134 442ft 0kts
05-Aug-18 20:36 47.442610 -122.304059 134 442ft 0kts
05-Aug-18 20:37 47.442610 -122.304059 134 442ft 0kts
05-Aug-18 20:38 47.442610 -122.304059 134 442ft 0kts
05-Aug-18 20:39 47.442610 -122.304059 134 442ft 0kts
05-Aug-18 20:40 47.442610 -122.304059 134 442ft 0kts
05-Aug-18 20:41 47.442610 -122.304059 134 442ft 0kts
05-Aug-18 20:42 47.442610 -122.304059 134 442ft 0kts
05-Aug-18 20:43 47.442610 -122.304059 134 442ft 0kts
05-Aug-18 20:44 47.442610 -122.304059 134 442ft 0kts
05-Aug-18 20:45 47.442610 -122.304059 134 442ft 0kts

Navigation Log

Ident Type
Flight plan parsing failed, navigation log unavailable